createdAt,value
2022-10-05T00:00:18.127Z,16.30
2022-10-05T00:02:46.747Z,16.30
2022-10-05T00:05:34.751Z,16.30
2022-10-05T00:08:22.531Z,16.30
2022-10-05T00:10:50.815Z,16.30
2022-10-05T00:13:25.418Z,16.30
2022-10-05T00:15:59.711Z,16.30
2022-10-05T00:18:27.483Z,16.30
2022-10-05T00:20:55.017Z,16.30
2022-10-05T00:23:29.646Z,16.30
2022-10-05T00:26:11.873Z,16.30
2022-10-05T00:28:41.243Z,16.30
2022-10-05T00:31:17.771Z,16.30
2022-10-05T00:33:44.942Z,16.30
2022-10-05T00:36:12.574Z,16.30
2022-10-05T00:38:40.354Z,16.30
2022-10-05T00:41:25.259Z,16.30
2022-10-05T00:44:23.176Z,16.30
2022-10-05T00:46:58.663Z,16.30
2022-10-05T00:49:37.755Z,16.30
2022-10-05T00:52:24.858Z,16.30
2022-10-05T00:55:13.513Z,16.30
2022-10-05T00:58:03.950Z,16.30
2022-10-05T01:00:35.324Z,16.20
2022-10-05T01:03:26.187Z,16.20
2022-10-05T01:06:05.470Z,16.20
2022-10-05T01:08:51.445Z,16.20
2022-10-05T01:11:27.371Z,16.20
2022-10-05T01:14:23.481Z,16.20
2022-10-05T01:16:56.439Z,16.20
2022-10-05T01:19:51.285Z,16.20
2022-10-05T01:23:07.477Z,16.20
2022-10-05T01:26:08.514Z,16.20
2022-10-05T01:28:52.995Z,16.20
2022-10-05T01:31:32.780Z,16.20
2022-10-05T01:34:21.252Z,16.20
2022-10-05T01:37:37.881Z,16.20
2022-10-05T01:40:30.137Z,16.20
2022-10-05T01:43:15.390Z,16.20
2022-10-05T01:45:59.471Z,16.20
2022-10-05T01:48:41.831Z,16.20
2022-10-05T01:51:16.537Z,16.20
2022-10-05T01:54:01.960Z,16.20
2022-10-05T01:56:38.315Z,16.20
2022-10-05T01:59:16.752Z,16.20
2022-10-05T02:02:03.763Z,16.10
2022-10-05T02:05:06.474Z,16.20
2022-10-05T02:07:40.320Z,16.20
2022-10-05T02:10:44.769Z,16.10
2022-10-05T02:13:27.087Z,16.10
2022-10-05T02:16:09.996Z,16.00
2022-10-05T02:19:03.561Z,16.00
2022-10-05T02:21:34.211Z,16.00
2022-10-05T02:24:07.042Z,16.00
2022-10-05T02:26:36.728Z,16.00
2022-10-05T02:29:09.636Z,16.00
2022-10-05T02:31:55.257Z,16.00
2022-10-05T02:34:30.172Z,16.00
2022-10-05T02:37:32.064Z,16.00
2022-10-05T02:40:29.643Z,16.00
2022-10-05T02:43:21.540Z,16.00
2022-10-05T02:46:16.232Z,16.00
2022-10-05T02:48:48.932Z,16.00
2022-10-05T02:51:22.900Z,16.00
2022-10-05T02:53:49.786Z,16.00
2022-10-05T02:56:34.848Z,16.00
2022-10-05T02:59:31.261Z,16.00
2022-10-05T03:02:15.482Z,16.00
2022-10-05T03:05:03.816Z,16.00
2022-10-05T03:07:53.809Z,16.00
2022-10-05T03:10:29.916Z,16.00
2022-10-05T03:13:36.097Z,16.00
2022-10-05T03:16:11.900Z,16.10
2022-10-05T03:18:52.214Z,16.10
2022-10-05T03:21:31.488Z,16.00
2022-10-05T03:24:08.088Z,16.00
2022-10-05T03:27:01.011Z,16.00
2022-10-05T03:29:33.978Z,16.10
2022-10-05T03:32:07.062Z,16.00
2022-10-05T03:34:45.944Z,16.00
2022-10-05T03:37:33.553Z,16.00
2022-10-05T03:40:21.477Z,16.00
2022-10-05T03:43:23.716Z,16.00
2022-10-05T03:46:10.934Z,16.00
2022-10-05T03:49:01.176Z,16.00
2022-10-05T03:51:34.975Z,16.00
2022-10-05T03:54:22.134Z,16.00
2022-10-05T03:56:55.609Z,16.00
2022-10-05T03:59:56.051Z,16.00
2022-10-05T04:02:31.506Z,16.00
2022-10-05T04:05:10.791Z,16.00
2022-10-05T04:07:50.158Z,16.00
2022-10-05T04:10:28.621Z,16.00
2022-10-05T04:13:07.762Z,16.00
2022-10-05T04:15:54.818Z,16.00
2022-10-05T04:18:53.982Z,16.00
2022-10-05T04:21:33.199Z,16.00
2022-10-05T04:24:29.988Z,16.00
2022-10-05T04:27:00.912Z,16.00
2022-10-05T04:29:58.761Z,16.00
2022-10-05T04:32:45.856Z,15.90
2022-10-05T04:35:31.743Z,15.90
2022-10-05T04:38:29.704Z,15.90
2022-10-05T04:41:19.803Z,15.90
2022-10-05T04:43:53.013Z,15.90
2022-10-05T04:46:45.405Z,15.90
2022-10-05T04:49:30.882Z,15.90
2022-10-05T04:52:16.361Z,15.90
2022-10-05T04:55:20.570Z,15.90
2022-10-05T04:58:15.643Z,15.90
2022-10-05T05:00:59.975Z,15.80
2022-10-05T05:03:49.238Z,15.90
2022-10-05T05:06:30.949Z,15.80
2022-10-05T05:09:26.808Z,15.80
2022-10-05T05:12:19.095Z,15.80
2022-10-05T05:15:09.639Z,15.80
2022-10-05T05:17:53.783Z,15.80
2022-10-05T05:20:39.185Z,15.80
2022-10-05T05:23:37.669Z,15.80
2022-10-05T05:26:38.747Z,15.80
2022-10-05T05:29:40.168Z,15.80
2022-10-05T05:32:45.929Z,15.70
2022-10-05T05:35:27.029Z,15.70
2022-10-05T05:38:18.687Z,15.80
2022-10-05T05:41:17.156Z,15.70
2022-10-05T05:44:11.592Z,15.70
2022-10-05T05:47:02.917Z,15.70
2022-10-05T05:49:42.821Z,15.70
2022-10-05T05:52:22.503Z,15.70
2022-10-05T05:55:07.005Z,15.70
2022-10-05T05:58:12.288Z,15.70
2022-10-05T06:00:45.811Z,15.80
2022-10-05T06:03:37.779Z,15.70
2022-10-05T06:06:10.593Z,15.70
2022-10-05T06:08:45.097Z,15.70
2022-10-05T06:11:20.982Z,15.70
2022-10-05T06:13:48.366Z,15.70
2022-10-05T06:16:24.615Z,15.80
2022-10-05T06:19:03.935Z,15.80
2022-10-05T06:22:25.457Z,15.80
2022-10-05T06:25:13.148Z,15.80
2022-10-05T06:28:16.307Z,15.80
2022-10-05T06:30:58.617Z,15.80
2022-10-05T06:33:39.648Z,15.80
2022-10-05T06:36:22.576Z,15.80
2022-10-05T06:39:15.314Z,15.80
2022-10-05T06:42:07.141Z,15.80
2022-10-05T06:44:43.863Z,15.80
2022-10-05T06:47:28.372Z,15.80
2022-10-05T06:50:30.435Z,15.90
2022-10-05T06:53:05.949Z,15.90
2022-10-05T06:55:51.022Z,15.90
2022-10-05T06:58:55.767Z,15.90
2022-10-05T07:01:53.371Z,15.90
2022-10-05T07:04:53.984Z,15.90
2022-10-05T07:07:47.467Z,15.90
2022-10-05T07:10:42.233Z,15.90
2022-10-05T07:13:52.161Z,15.90
2022-10-05T07:16:29.516Z,15.90
2022-10-05T07:19:07.400Z,15.90
2022-10-05T07:22:11.908Z,15.90
2022-10-05T07:24:55.572Z,15.90
2022-10-05T07:27:31.055Z,15.90
2022-10-05T07:30:10.915Z,15.90
2022-10-05T07:33:13.835Z,16.00
2022-10-05T07:36:20.182Z,16.00
2022-10-05T07:38:55.530Z,16.00
2022-10-05T07:41:37.159Z,16.00
2022-10-05T07:44:31.022Z,16.10
2022-10-05T07:47:31.778Z,16.10
2022-10-05T07:50:11.941Z,16.20
2022-10-05T07:52:49.901Z,16.20
2022-10-05T07:55:26.668Z,16.30
2022-10-05T07:58:22.801Z,16.30
2022-10-05T08:01:08.777Z,16.30
2022-10-05T08:03:44.888Z,16.30
2022-10-05T08:06:33.327Z,16.30
2022-10-05T08:09:23.446Z,16.30
2022-10-05T08:12:03.017Z,16.30
2022-10-05T08:14:46.587Z,16.40
2022-10-05T08:17:29.174Z,16.40
2022-10-05T08:20:24.229Z,16.40
2022-10-05T08:22:59.638Z,16.40
2022-10-05T08:25:51.192Z,16.40
2022-10-05T08:28:26.736Z,16.40
2022-10-05T08:31:16.862Z,16.50
2022-10-05T08:34:13.120Z,16.60
2022-10-05T08:36:40.099Z,16.70
2022-10-05T08:39:18.949Z,16.70
2022-10-05T08:41:46.075Z,16.80
2022-10-05T08:44:44.639Z,16.80
2022-10-05T08:47:28.298Z,16.80
2022-10-05T08:50:04.233Z,16.90
2022-10-05T08:52:55.813Z,17.00
2022-10-05T08:55:57.275Z,17.20
2022-10-05T08:58:49.123Z,17.20
2022-10-05T09:01:45.648Z,17.30
2022-10-05T09:04:15.759Z,17.30
2022-10-05T09:06:52.405Z,17.30
2022-10-05T09:10:14.109Z,17.40
2022-10-05T09:12:59.702Z,17.50
2022-10-05T09:15:44.796Z,17.60
2022-10-05T09:18:42.916Z,17.60
2022-10-05T09:21:44.899Z,17.60
2022-10-05T09:24:15.245Z,17.80
2022-10-05T09:27:14.709Z,17.80
2022-10-05T09:29:47.444Z,17.80
2022-10-05T09:32:29.673Z,17.80
2022-10-05T09:35:29.465Z,17.80
2022-10-05T09:38:13.098Z,18.00
2022-10-05T09:40:58.681Z,18.10
2022-10-05T09:44:03.584Z,18.20
2022-10-05T09:47:21.352Z,18.30
2022-10-05T09:50:03.338Z,18.30
2022-10-05T09:53:12.891Z,18.30
2022-10-05T09:55:43.229Z,18.30
2022-10-05T09:58:23.223Z,18.30
2022-10-05T10:01:36.367Z,18.20
2022-10-05T10:04:44.561Z,18.20
2022-10-05T10:07:41.004Z,18.10
2022-10-05T10:10:30.533Z,18.20
2022-10-05T10:13:06.701Z,18.30
2022-10-05T10:15:59.040Z,18.30
2022-10-05T10:18:35.000Z,18.30
2022-10-05T10:21:16.993Z,18.20
2022-10-05T10:24:02.210Z,18.10
2022-10-05T10:27:02.901Z,18.00
2022-10-05T10:30:03.758Z,17.90
2022-10-05T10:33:15.521Z,17.80
2022-10-05T10:35:58.173Z,17.70
2022-10-05T10:38:45.469Z,17.60
2022-10-05T10:41:18.418Z,17.60
2022-10-05T10:44:24.273Z,17.50
2022-10-05T10:47:03.189Z,17.50
2022-10-05T10:49:56.377Z,17.50
2022-10-05T10:52:42.191Z,17.50
2022-10-05T10:55:33.924Z,17.50
2022-10-05T11:01:18.493Z,17.60
2022-10-05T11:04:19.307Z,17.60
2022-10-05T11:07:01.208Z,17.60
2022-10-05T11:10:26.618Z,17.60
2022-10-05T11:13:02.156Z,17.60
2022-10-05T11:15:51.231Z,17.60
2022-10-05T11:18:39.233Z,17.50
2022-10-05T11:21:26.192Z,17.50
2022-10-05T11:24:08.272Z,17.50
2022-10-05T11:26:44.140Z,17.50
2022-10-05T11:29:38.486Z,17.40
2022-10-05T11:32:30.155Z,17.40
2022-10-05T11:35:20.793Z,17.40
2022-10-05T11:38:18.934Z,17.40
2022-10-05T11:41:22.680Z,17.40
2022-10-05T11:44:26.992Z,17.40
2022-10-05T11:46:58.429Z,17.30
2022-10-05T11:49:43.627Z,17.30
2022-10-05T11:52:25.792Z,17.30
2022-10-05T11:55:17.058Z,17.30
2022-10-05T11:57:46.897Z,17.30
2022-10-05T12:00:21.531Z,17.30
2022-10-05T12:02:54.254Z,17.30
2022-10-05T12:05:27.087Z,17.30
2022-10-05T12:08:00.009Z,17.30
2022-10-05T12:10:39.010Z,17.30
2022-10-05T12:13:25.908Z,17.30
2022-10-05T12:16:08.581Z,17.30
2022-10-05T12:18:39.252Z,17.40
2022-10-05T12:21:25.044Z,17.40
2022-10-05T12:24:27.175Z,17.40
2022-10-05T12:27:04.430Z,17.40
2022-10-05T12:29:41.952Z,17.50
2022-10-05T12:32:20.270Z,17.50
2022-10-05T12:35:46.793Z,17.50
2022-10-05T12:38:34.291Z,17.50
2022-10-05T12:41:07.282Z,17.50
2022-10-05T12:44:12.059Z,17.50
2022-10-05T12:46:39.685Z,17.50
2022-10-05T12:49:21.073Z,17.50
2022-10-05T12:52:01.363Z,17.50
2022-10-05T12:54:40.557Z,17.50
2022-10-05T12:57:19.576Z,17.50
2022-10-05T13:00:04.098Z,17.50
2022-10-05T13:02:44.454Z,17.50
2022-10-05T13:05:11.421Z,17.50
2022-10-05T13:08:09.267Z,17.50
2022-10-05T13:11:04.997Z,17.50
2022-10-05T13:14:02.521Z,17.50
2022-10-05T13:16:55.947Z,17.50
2022-10-05T13:20:16.489Z,17.50
2022-10-05T13:22:48.512Z,17.60
2022-10-05T13:25:25.924Z,17.70
2022-10-05T13:28:05.273Z,17.80
2022-10-05T13:30:32.868Z,17.80
2022-10-05T13:33:24.000Z,17.80
2022-10-05T13:36:13.280Z,17.80
2022-10-05T13:39:00.614Z,17.80
2022-10-05T13:41:59.666Z,17.90
2022-10-05T13:44:32.781Z,17.90
2022-10-05T13:47:29.223Z,17.80
2022-10-05T13:50:33.618Z,17.80
2022-10-05T13:53:12.785Z,17.80
2022-10-05T13:56:00.876Z,17.90
2022-10-05T13:58:51.606Z,18.00
2022-10-05T14:01:43.404Z,18.10
2022-10-05T14:04:20.799Z,18.30
2022-10-05T14:06:49.173Z,18.60
2022-10-05T14:09:22.293Z,18.90
2022-10-05T14:11:55.657Z,19.20
2022-10-05T14:14:30.502Z,19.50
2022-10-05T14:19:48.692Z,19.20
2022-10-05T14:22:23.315Z,18.90
2022-10-05T14:25:10.102Z,18.70
2022-10-05T14:27:57.306Z,18.60
2022-10-05T14:31:10.654Z,18.50
2022-10-05T14:33:38.293Z,18.50
2022-10-05T14:36:31.936Z,18.40
2022-10-05T14:39:03.659Z,18.30
2022-10-05T14:41:37.273Z,18.30
2022-10-05T14:50:17.933Z,18.10
2022-10-05T14:52:58.891Z,18.10
2022-10-05T14:55:37.914Z,18.00
2022-10-05T14:58:32.030Z,18.00
2022-10-05T15:01:16.467Z,17.90
2022-10-05T15:03:48.567Z,17.90
2022-10-05T15:06:40.027Z,17.80
2022-10-05T15:09:21.985Z,17.80
2022-10-05T15:11:55.177Z,17.70
2022-10-05T15:14:38.178Z,17.70
2022-10-05T15:17:16.292Z,17.70
2022-10-05T15:19:58.777Z,17.70
2022-10-05T15:22:41.106Z,17.70
2022-10-05T15:25:16.605Z,17.70
2022-10-05T15:27:49.501Z,17.70
2022-10-05T15:30:18.368Z,17.60
2022-10-05T15:33:12.957Z,17.60
2022-10-05T15:36:17.586Z,17.60
2022-10-05T15:39:00.372Z,17.60
2022-10-05T15:41:50.808Z,17.70
2022-10-05T15:44:36.290Z,17.60
2022-10-05T15:47:35.136Z,17.60
2022-10-05T15:50:04.795Z,17.60
2022-10-05T15:53:10.616Z,17.60
2022-10-05T15:56:01.226Z,17.60
2022-10-05T15:59:00.785Z,17.70
2022-10-05T16:01:33.628Z,17.70
2022-10-05T16:04:48.634Z,17.70
2022-10-05T16:07:43.884Z,17.70
2022-10-05T16:10:16.216Z,17.70
2022-10-05T16:13:04.435Z,17.70
2022-10-05T16:15:37.118Z,17.70
2022-10-05T16:18:30.250Z,17.70
2022-10-05T16:21:38.927Z,17.70
2022-10-05T16:24:41.330Z,17.70
2022-10-05T16:27:36.194Z,17.70
2022-10-05T16:30:16.622Z,17.70
2022-10-05T16:32:50.320Z,17.70
2022-10-05T16:35:44.436Z,17.70
2022-10-05T16:38:50.815Z,17.70
2022-10-05T16:41:38.421Z,17.70
2022-10-05T16:44:11.140Z,17.70
2022-10-05T16:47:01.469Z,17.60
2022-10-05T16:49:52.572Z,17.60
2022-10-05T16:52:21.848Z,17.60
2022-10-05T16:54:57.770Z,17.60
2022-10-05T16:57:35.248Z,17.60
2022-10-05T17:00:15.040Z,17.60
2022-10-05T17:02:55.304Z,17.60
2022-10-05T17:05:46.696Z,17.60
2022-10-05T17:08:30.405Z,17.60
2022-10-05T17:11:17.475Z,17.50
2022-10-05T17:13:59.950Z,17.50
2022-10-05T17:16:54.963Z,17.50
2022-10-05T17:19:38.091Z,17.50
2022-10-05T17:22:26.638Z,17.50
2022-10-05T17:25:08.989Z,17.50
2022-10-05T17:27:52.727Z,17.50
2022-10-05T17:30:25.559Z,17.50
2022-10-05T17:33:00.641Z,17.50
2022-10-05T17:35:58.246Z,17.50
2022-10-05T17:38:31.360Z,17.50
2022-10-05T17:41:04.831Z,17.50
2022-10-05T17:43:33.566Z,17.50
2022-10-05T17:46:02.940Z,17.50
2022-10-05T17:48:35.831Z,17.50
2022-10-05T17:51:25.948Z,17.50
2022-10-05T17:54:11.740Z,17.50
2022-10-05T17:56:48.027Z,17.50
2022-10-05T17:59:46.227Z,17.50
2022-10-05T18:02:36.262Z,17.40
2022-10-05T18:05:06.633Z,17.50
2022-10-05T18:07:38.533Z,17.40
2022-10-05T18:10:17.691Z,17.40
2022-10-05T18:13:07.716Z,17.40
2022-10-05T18:15:34.495Z,17.40
2022-10-05T18:18:35.645Z,17.50
2022-10-05T18:21:15.380Z,17.50
2022-10-05T18:23:47.396Z,17.40
2022-10-05T18:26:43.669Z,17.40
2022-10-05T18:29:52.946Z,17.40
2022-10-05T18:32:48.764Z,17.40
2022-10-05T18:35:23.671Z,17.40
2022-10-05T18:38:09.237Z,17.40
2022-10-05T18:40:47.684Z,17.40
2022-10-05T18:43:35.842Z,17.40
2022-10-05T18:46:27.931Z,17.40
2022-10-05T18:49:19.038Z,17.40
2022-10-05T18:52:13.866Z,17.40
2022-10-05T18:55:11.235Z,17.40
2022-10-05T18:58:05.673Z,17.40
2022-10-05T19:00:35.597Z,17.50
2022-10-05T19:03:40.226Z,17.50
2022-10-05T19:06:22.263Z,17.50
2022-10-05T19:08:51.940Z,17.40
2022-10-05T19:11:44.638Z,17.40
2022-10-05T19:14:23.235Z,17.40
2022-10-05T19:17:17.128Z,17.40
2022-10-05T19:19:55.202Z,17.40
2022-10-05T19:22:25.251Z,17.40
2022-10-05T19:25:23.294Z,17.30
2022-10-05T19:28:07.657Z,17.30
2022-10-05T19:30:56.223Z,17.20
2022-10-05T19:33:56.865Z,17.20
2022-10-05T19:36:29.991Z,17.10
2022-10-05T19:39:28.610Z,17.10
2022-10-05T19:42:33.124Z,16.90
2022-10-05T19:45:09.927Z,16.70
2022-10-05T19:47:48.719Z,16.50
2022-10-05T19:50:23.194Z,16.30
2022-10-05T19:52:57.179Z,16.10
2022-10-05T19:55:41.645Z,16.00
2022-10-05T19:58:27.282Z,15.80
2022-10-05T20:00:57.146Z,15.80
2022-10-05T20:03:30.066Z,15.70
2022-10-05T20:06:08.045Z,15.60
2022-10-05T20:08:43.893Z,15.60
2022-10-05T20:11:14.650Z,15.60
2022-10-05T20:14:06.768Z,15.50
2022-10-05T20:16:53.785Z,15.50
2022-10-05T20:19:49.843Z,15.40
2022-10-05T20:22:26.034Z,15.40
2022-10-05T20:24:55.384Z,15.30
2022-10-05T20:27:40.413Z,15.30
2022-10-05T20:30:09.798Z,15.30
2022-10-05T20:32:36.748Z,15.20
2022-10-05T20:35:05.113Z,15.20
2022-10-05T20:37:32.698Z,15.20
2022-10-05T20:39:59.910Z,15.20
2022-10-05T20:42:26.785Z,15.20
2022-10-05T20:44:56.917Z,15.10
2022-10-05T20:47:25.389Z,15.10
2022-10-05T20:49:54.594Z,15.10
2022-10-05T20:52:23.132Z,15.10
2022-10-05T20:54:53.880Z,15.10
2022-10-05T20:57:21.317Z,15.10
2022-10-05T20:59:48.339Z,15.10
2022-10-05T21:02:15.310Z,15.10
2022-10-05T21:04:47.492Z,15.10
2022-10-05T21:07:21.159Z,15.10
2022-10-05T21:09:48.053Z,15.10
2022-10-05T21:12:16.416Z,15.00
2022-10-05T21:14:43.467Z,15.10
2022-10-05T21:17:12.029Z,15.10
2022-10-05T21:19:39.477Z,15.00
2022-10-05T21:22:08.221Z,15.10
2022-10-05T21:24:39.771Z,15.10
2022-10-05T21:27:07.687Z,15.10
2022-10-05T21:29:35.719Z,15.10
2022-10-05T21:32:02.881Z,15.10
2022-10-05T21:34:30.321Z,15.10
2022-10-05T21:36:57.221Z,15.10
2022-10-05T21:39:24.790Z,15.00
2022-10-05T21:41:52.050Z,15.00
2022-10-05T21:44:19.061Z,15.10
2022-10-05T21:46:46.903Z,15.00
2022-10-05T21:49:17.577Z,15.00
2022-10-05T21:51:47.331Z,15.00
2022-10-05T21:54:18.163Z,15.00
2022-10-05T21:56:50.405Z,15.00
2022-10-05T21:59:20.263Z,14.90
2022-10-05T22:01:47.158Z,14.90
2022-10-05T22:04:15.123Z,14.90
2022-10-05T22:06:42.109Z,14.90
2022-10-05T22:09:09.068Z,14.80
2022-10-05T22:11:35.909Z,14.80
2022-10-05T22:14:02.907Z,14.80
2022-10-05T22:16:32.868Z,14.70
2022-10-05T22:19:04.186Z,14.70
2022-10-05T22:21:34.117Z,14.70
2022-10-05T22:24:02.730Z,14.70
2022-10-05T22:26:30.441Z,14.60
2022-10-05T22:28:57.653Z,14.60
2022-10-05T22:31:24.627Z,14.60
2022-10-05T22:33:52.089Z,14.60
2022-10-05T22:36:19.697Z,14.60
2022-10-05T22:38:47.605Z,14.60
2022-10-05T22:41:16.469Z,14.50
2022-10-05T22:43:43.405Z,14.50
2022-10-05T22:46:14.291Z,14.40
2022-10-05T22:48:41.337Z,14.30
2022-10-05T22:51:08.385Z,14.30
2022-10-05T22:53:35.413Z,14.30
2022-10-05T22:56:11.157Z,14.20
2022-10-05T22:58:39.053Z,14.20
2022-10-05T23:01:12.480Z,14.20
2022-10-05T23:03:39.770Z,14.20
2022-10-05T23:06:09.128Z,14.20
2022-10-05T23:08:37.443Z,14.20
2022-10-05T23:11:10.043Z,14.20
2022-10-05T23:13:37.436Z,14.20
2022-10-05T23:16:09.713Z,14.20
2022-10-05T23:18:37.180Z,14.10
2022-10-05T23:21:08.594Z,14.10
2022-10-05T23:23:37.499Z,14.10
2022-10-05T23:26:05.446Z,14.10
2022-10-05T23:28:32.981Z,14.10
2022-10-05T23:31:06.156Z,14.00
2022-10-05T23:33:33.779Z,14.00
2022-10-05T23:36:02.772Z,14.00
2022-10-05T23:38:30.233Z,13.90
2022-10-05T23:40:58.969Z,13.90
2022-10-05T23:43:26.983Z,13.90
2022-10-05T23:45:55.477Z,13.90
2022-10-05T23:48:22.917Z,13.80
2022-10-05T23:50:50.574Z,13.80
2022-10-05T23:53:18.696Z,13.80
2022-10-05T23:55:45.955Z,13.70
2022-10-05T23:58:12.854Z,13.70
